createdAt,value
2022-12-03T00:00:58.824Z,95931
2022-12-03T00:01:58.820Z,95929
2022-12-03T00:02:59.050Z,95931
2022-12-03T00:03:58.975Z,95928
2022-12-03T00:04:58.877Z,95930
2022-12-03T00:05:58.869Z,95931
2022-12-03T00:06:58.857Z,95931
2022-12-03T00:07:59.005Z,95933
2022-12-03T00:08:58.851Z,95929
2022-12-03T00:09:58.878Z,95929
2022-12-03T00:11:01.069Z,95930
2022-12-03T00:11:58.850Z,95930
2022-12-03T00:12:58.879Z,95927
2022-12-03T00:13:58.816Z,95927
2022-12-03T00:14:58.971Z,95930
2022-12-03T00:15:58.873Z,95935
2022-12-03T00:16:58.890Z,95933
2022-12-03T00:17:58.909Z,95935
2022-12-03T00:18:58.908Z,95936
2022-12-03T00:19:58.841Z,95936
2022-12-03T00:20:58.922Z,95938
2022-12-03T00:21:58.873Z,95934
2022-12-03T00:22:58.886Z,95928
2022-12-03T00:23:58.881Z,95928
2022-12-03T00:24:58.871Z,95932
2022-12-03T00:25:58.914Z,95929
2022-12-03T00:26:58.858Z,95930
2022-12-03T00:27:58.890Z,95928
2022-12-03T00:28:58.871Z,95930
2022-12-03T00:29:58.865Z,95930
2022-12-03T00:30:58.959Z,95922
2022-12-03T00:31:58.909Z,95924
2022-12-03T00:32:58.890Z,95924
2022-12-03T00:35:58.974Z,95925
2022-12-03T00:36:58.871Z,95925
2022-12-03T00:37:58.947Z,95925
2022-12-03T00:38:58.936Z,95923
2022-12-03T00:39:58.863Z,95923
2022-12-03T00:40:58.934Z,95925
2022-12-03T00:41:58.938Z,95926
2022-12-03T00:42:58.959Z,95927
2022-12-03T00:43:58.942Z,95928
2022-12-03T00:44:58.928Z,95923
2022-12-03T00:45:59.090Z,95923
2022-12-03T00:46:58.950Z,95923
2022-12-03T00:48:01.276Z,95916
2022-12-03T00:48:58.898Z,95916
2022-12-03T00:49:58.954Z,95918
2022-12-03T00:50:58.980Z,95918
2022-12-03T00:51:58.912Z,95918
2022-12-03T00:52:58.952Z,95915
2022-12-03T00:53:58.980Z,95915
2022-12-03T00:54:58.924Z,95915
2022-12-03T00:55:58.984Z,95918
2022-12-03T00:56:58.956Z,95918
2022-12-03T00:57:59.002Z,95923
2022-12-03T00:58:58.947Z,95923
2022-12-03T00:59:58.963Z,95923
2022-12-03T01:01:59.072Z,95924
2022-12-03T01:02:58.974Z,95924
2022-12-03T01:03:58.934Z,95926
2022-12-03T01:04:59.037Z,95926
2022-12-03T01:05:58.974Z,95926
2022-12-03T01:06:58.958Z,95922
2022-12-03T01:08:58.955Z,95920
2022-12-03T01:09:58.966Z,95919
2022-12-03T01:10:59.003Z,95915
2022-12-03T01:12:58.954Z,95919
2022-12-03T01:13:58.958Z,95921
2022-12-03T01:14:58.979Z,95918
2022-12-03T01:15:59.043Z,95921
2022-12-03T01:16:58.967Z,95921
2022-12-03T01:17:59.058Z,95920
2022-12-03T01:18:59.039Z,95926
2022-12-03T01:19:58.996Z,95920
2022-12-03T01:20:59.024Z,95921
2022-12-03T01:21:58.997Z,95922
2022-12-03T01:22:59.020Z,95922
2022-12-03T01:23:58.998Z,95923
2022-12-03T01:25:01.560Z,95931
2022-12-03T01:25:59.043Z,95930
2022-12-03T01:26:59.000Z,95930
2022-12-03T01:27:59.052Z,95931
2022-12-03T01:28:59.027Z,95936
2022-12-03T01:29:59.025Z,95936
2022-12-03T01:30:59.069Z,95936
2022-12-03T01:31:59.006Z,95941
2022-12-03T01:32:59.046Z,95942
2022-12-03T01:33:59.047Z,95944
2022-12-03T01:34:59.010Z,95946
2022-12-03T01:35:59.024Z,95945
2022-12-03T01:37:59.022Z,95944
2022-12-03T01:38:59.104Z,95940
2022-12-03T01:39:59.064Z,95940
2022-12-03T01:40:59.085Z,95943
2022-12-03T01:42:59.160Z,95937
2022-12-03T01:44:59.087Z,95945
2022-12-03T01:45:59.078Z,95943
2022-12-03T01:46:59.269Z,95948
2022-12-03T01:48:59.160Z,95945
2022-12-03T01:49:59.043Z,95945
2022-12-03T01:50:59.084Z,95944
2022-12-03T01:52:59.052Z,95947
2022-12-03T01:53:59.095Z,95947
2022-12-03T01:54:59.072Z,95947
2022-12-03T01:55:59.077Z,95951
2022-12-03T01:56:59.145Z,95952
2022-12-03T01:57:59.107Z,95952
2022-12-03T01:58:59.140Z,95953
2022-12-03T01:59:59.102Z,95950
2022-12-03T02:00:59.117Z,95950
2022-12-03T02:02:01.855Z,95948
2022-12-03T02:02:59.128Z,95948
2022-12-03T02:03:59.228Z,95945
2022-12-03T02:04:59.139Z,95944
2022-12-03T02:05:59.106Z,95944
2022-12-03T02:06:59.165Z,95944
2022-12-03T02:07:59.305Z,95943
2022-12-03T02:08:59.179Z,95939
2022-12-03T02:09:59.122Z,95939
2022-12-03T02:10:59.128Z,95940
2022-12-03T02:11:59.177Z,95942
2022-12-03T02:12:59.101Z,95939
2022-12-03T02:13:59.168Z,95943
2022-12-03T02:14:59.121Z,95943
2022-12-03T02:16:59.185Z,95937
2022-12-03T02:17:59.160Z,95939
2022-12-03T02:18:59.177Z,95937
2022-12-03T02:19:59.154Z,95937
2022-12-03T02:20:59.123Z,95937
2022-12-03T02:21:59.206Z,95931
2022-12-03T02:22:59.137Z,95934
2022-12-03T02:23:59.126Z,95933
2022-12-03T02:24:59.158Z,95934
2022-12-03T02:25:59.157Z,95934
2022-12-03T02:26:59.167Z,95933
2022-12-03T02:27:59.133Z,95935
2022-12-03T02:28:59.136Z,95935
2022-12-03T02:29:59.151Z,95935
2022-12-03T02:30:59.201Z,95935
2022-12-03T02:31:59.276Z,95937
2022-12-03T02:32:59.205Z,95937
2022-12-03T02:33:59.188Z,95936
2022-12-03T02:34:59.202Z,95940
2022-12-03T02:36:03.269Z,95940
2022-12-03T02:36:59.232Z,95936
2022-12-03T02:37:59.222Z,95939
2022-12-03T02:39:02.034Z,95936
2022-12-03T02:39:59.214Z,95940
2022-12-03T02:40:59.178Z,95933
2022-12-03T02:41:59.164Z,95933
2022-12-03T02:42:59.176Z,95933
2022-12-03T02:43:59.171Z,95936
2022-12-03T02:45:04.701Z,95933
2022-12-03T02:45:59.195Z,95937
2022-12-03T02:46:59.311Z,95938
2022-12-03T02:47:59.180Z,95938
2022-12-03T02:48:59.194Z,95933
2022-12-03T02:49:59.225Z,95931
2022-12-03T02:50:59.243Z,95931
2022-12-03T02:51:59.229Z,95931
2022-12-03T02:52:59.202Z,95923
2022-12-03T02:53:59.194Z,95923
2022-12-03T02:54:59.236Z,95929
2022-12-03T02:55:59.246Z,95926
2022-12-03T02:56:59.242Z,95928
2022-12-03T02:57:59.207Z,95927
2022-12-03T02:58:59.255Z,95931
2022-12-03T02:59:59.282Z,95932
2022-12-03T03:00:59.316Z,95939
2022-12-03T03:01:59.277Z,95939
2022-12-03T03:02:59.310Z,95928
2022-12-03T03:03:59.259Z,95928
2022-12-03T03:04:59.344Z,95927
2022-12-03T03:06:59.292Z,95929
2022-12-03T03:07:59.371Z,95933
2022-12-03T03:08:59.235Z,95933
2022-12-03T03:09:59.283Z,95930
2022-12-03T03:10:59.249Z,95930
2022-12-03T03:11:59.233Z,95932
2022-12-03T03:12:59.323Z,95922
2022-12-03T03:13:59.297Z,95922
2022-12-03T03:14:59.338Z,95920
2022-12-03T03:16:02.448Z,95921
2022-12-03T03:16:59.237Z,95921
2022-12-03T03:17:59.336Z,95917
2022-12-03T03:18:59.263Z,95921
2022-12-03T03:19:59.284Z,95924
2022-12-03T03:21:59.324Z,95925
2022-12-03T03:23:59.271Z,95925
2022-12-03T03:24:59.271Z,95927
2022-12-03T03:25:59.321Z,95933
2022-12-03T03:26:59.292Z,95933
2022-12-03T03:27:59.384Z,95931
2022-12-03T03:28:59.330Z,95930
2022-12-03T03:29:59.334Z,95935
2022-12-03T03:30:59.319Z,95935
2022-12-03T03:31:59.325Z,95933
2022-12-03T03:32:59.328Z,95930
2022-12-03T03:33:59.301Z,95928
2022-12-03T03:34:59.355Z,95925
2022-12-03T03:35:59.333Z,95925
2022-12-03T03:36:59.308Z,95927
2022-12-03T03:37:59.381Z,95926
2022-12-03T03:38:59.300Z,95926
2022-12-03T03:39:59.306Z,95922
2022-12-03T03:40:59.395Z,95917
2022-12-03T03:41:59.335Z,95922
2022-12-03T03:42:59.360Z,95921
2022-12-03T03:43:59.357Z,95921
2022-12-03T03:44:59.365Z,95922
2022-12-03T03:46:59.356Z,95923
2022-12-03T03:47:59.390Z,95923
2022-12-03T03:48:59.349Z,95925
2022-12-03T03:49:59.335Z,95922
2022-12-03T03:50:59.418Z,95923
2022-12-03T03:51:59.386Z,95923
2022-12-03T03:53:02.524Z,95924
2022-12-03T03:53:59.360Z,95927
2022-12-03T03:54:59.347Z,95927
2022-12-03T03:55:59.432Z,95923
2022-12-03T03:56:59.383Z,95923
2022-12-03T03:57:59.382Z,95924
2022-12-03T03:58:59.387Z,95925
2022-12-03T04:00:59.484Z,95926
2022-12-03T04:01:59.406Z,95927
2022-12-03T04:02:59.371Z,95927
2022-12-03T04:03:59.494Z,95931
2022-12-03T04:04:59.414Z,95935
2022-12-03T04:05:59.445Z,95935
2022-12-03T04:06:59.378Z,95925
2022-12-03T04:07:59.513Z,95931
2022-12-03T04:08:59.458Z,95931
2022-12-03T04:10:59.459Z,95929
2022-12-03T04:12:59.439Z,95928
2022-12-03T04:13:59.469Z,95919
2022-12-03T04:14:59.429Z,95919
2022-12-03T04:15:59.475Z,95918
2022-12-03T04:16:59.511Z,95918
2022-12-03T04:18:59.484Z,95923
2022-12-03T04:19:59.408Z,95923
2022-12-03T04:20:59.436Z,95923
2022-12-03T04:21:59.445Z,95923
2022-12-03T04:22:59.420Z,95923
2022-12-03T04:23:59.499Z,95919
2022-12-03T04:24:59.420Z,95919
2022-12-03T04:25:59.491Z,95920
2022-12-03T04:26:59.437Z,95920
2022-12-03T04:27:59.430Z,95921
2022-12-03T04:28:59.456Z,95923
2022-12-03T04:30:02.713Z,95921
2022-12-03T04:30:59.576Z,95921
2022-12-03T04:31:59.447Z,95917
2022-12-03T04:32:59.424Z,95918
2022-12-03T04:33:59.478Z,95911
2022-12-03T04:35:59.558Z,95914
2022-12-03T04:36:59.489Z,95917
2022-12-03T04:37:59.485Z,95912
2022-12-03T04:38:59.533Z,95916
2022-12-03T04:39:59.449Z,95916
2022-12-03T04:40:59.464Z,95914
2022-12-03T04:42:59.479Z,95921
2022-12-03T04:43:59.542Z,95924
2022-12-03T04:44:59.469Z,95924
2022-12-03T04:45:59.639Z,95924
2022-12-03T04:46:59.547Z,95923
2022-12-03T04:47:59.470Z,95920
2022-12-03T04:48:59.502Z,95923
2022-12-03T04:49:59.474Z,95921
2022-12-03T04:50:59.470Z,95916
2022-12-03T04:51:59.531Z,95915
2022-12-03T04:52:59.524Z,95915
2022-12-03T04:53:59.495Z,95915
2022-12-03T04:54:59.527Z,95914
2022-12-03T04:55:59.531Z,95916
2022-12-03T04:56:59.542Z,95920
2022-12-03T04:57:59.518Z,95920
2022-12-03T04:58:59.526Z,95925
2022-12-03T04:59:59.501Z,95929
2022-12-03T05:00:59.535Z,95929
2022-12-03T05:01:59.655Z,95927
2022-12-03T05:02:59.638Z,95923
2022-12-03T05:03:59.573Z,95923
2022-12-03T05:04:59.537Z,95923
2022-12-03T05:05:59.553Z,95927
2022-12-03T05:07:02.987Z,95930
2022-12-03T05:07:59.662Z,95930
2022-12-03T05:08:59.566Z,95928
2022-12-03T05:09:59.545Z,95930
2022-12-03T05:10:59.540Z,95930
2022-12-03T05:11:59.559Z,95925
2022-12-03T05:12:59.516Z,95919
2022-12-03T05:13:59.554Z,95922
2022-12-03T05:14:59.583Z,95919
2022-12-03T05:15:59.578Z,95919
2022-12-03T05:16:59.881Z,95920
2022-12-03T05:18:59.565Z,95914
2022-12-03T05:19:59.754Z,95918
2022-12-03T05:20:59.575Z,95910
2022-12-03T05:21:59.568Z,95910
2022-12-03T05:22:59.571Z,95918
2022-12-03T05:23:59.562Z,95917
2022-12-03T05:25:59.564Z,95922
2022-12-03T05:26:59.612Z,95920
2022-12-03T05:27:59.750Z,95917
2022-12-03T05:28:59.565Z,95918
2022-12-03T05:29:59.609Z,95917
2022-12-03T05:30:59.675Z,95917
2022-12-03T05:31:59.606Z,95916
2022-12-03T05:33:59.598Z,95915
2022-12-03T05:34:59.788Z,95918
2022-12-03T05:35:59.596Z,95918
2022-12-03T05:36:59.581Z,95912
2022-12-03T05:37:59.779Z,95919
2022-12-03T05:38:59.756Z,95919
2022-12-03T05:39:59.600Z,95914
2022-12-03T05:40:59.754Z,95908
2022-12-03T05:41:59.604Z,95907
2022-12-03T05:42:59.767Z,95902
2022-12-03T05:44:03.258Z,95906
2022-12-03T05:44:59.749Z,95906
2022-12-03T05:45:59.919Z,95906
2022-12-03T05:46:59.746Z,95906
2022-12-03T05:47:59.613Z,95908
2022-12-03T05:49:59.776Z,95917
2022-12-03T05:50:59.815Z,95917
2022-12-03T05:51:59.750Z,95920
2022-12-03T05:52:59.753Z,95919
2022-12-03T05:53:59.823Z,95921
2022-12-03T05:54:59.778Z,95921
2022-12-03T05:55:59.808Z,95916
2022-12-03T05:56:59.773Z,95916
2022-12-03T05:57:59.819Z,95920
2022-12-03T05:58:59.829Z,95922
2022-12-03T05:59:59.791Z,95922
2022-12-03T06:00:59.820Z,95915
2022-12-03T06:02:00.450Z,95916
2022-12-03T06:02:59.991Z,95916
2022-12-03T06:03:59.941Z,95921
2022-12-03T06:04:59.814Z,95921
2022-12-03T06:05:59.836Z,95922
2022-12-03T06:06:59.830Z,95922
2022-12-03T06:07:59.859Z,95930
2022-12-03T06:08:59.825Z,95928
2022-12-03T06:09:59.802Z,95928
2022-12-03T06:10:59.832Z,95926
2022-12-03T06:11:59.793Z,95926
2022-12-03T06:12:59.790Z,95925
2022-12-03T06:15:59.901Z,95926
2022-12-03T06:16:59.793Z,95926
2022-12-03T06:17:59.869Z,95921
2022-12-03T06:18:59.827Z,95918
2022-12-03T06:19:59.831Z,95911
2022-12-03T06:21:03.548Z,95908
2022-12-03T06:21:59.827Z,95906
2022-12-03T06:22:59.876Z,95904
2022-12-03T06:23:59.882Z,95905
2022-12-03T06:25:06.138Z,95904
2022-12-03T06:25:59.825Z,95911
2022-12-03T06:26:59.893Z,95906
2022-12-03T06:27:59.889Z,95904
2022-12-03T06:28:59.873Z,95904
2022-12-03T06:29:59.850Z,95906
2022-12-03T06:30:59.936Z,95913
2022-12-03T06:31:59.839Z,95911
2022-12-03T06:32:59.833Z,95911
2022-12-03T06:33:59.820Z,95911
2022-12-03T06:34:59.884Z,95911
2022-12-03T06:35:59.862Z,95909
2022-12-03T06:36:59.881Z,95903
2022-12-03T06:37:59.829Z,95908
2022-12-03T06:38:59.829Z,95903
2022-12-03T06:39:59.862Z,95900
2022-12-03T06:41:59.868Z,95896
2022-12-03T06:43:59.842Z,95895
2022-12-03T06:45:59.929Z,95899
2022-12-03T06:47:00.010Z,95902
2022-12-03T06:47:59.870Z,95899
2022-12-03T06:48:59.827Z,95898
2022-12-03T06:49:59.832Z,95895
2022-12-03T06:50:59.875Z,95901
2022-12-03T06:51:59.827Z,95900
2022-12-03T06:52:59.874Z,95898
2022-12-03T06:53:59.872Z,95900
2022-12-03T06:55:59.880Z,95902
2022-12-03T06:56:59.873Z,95907
2022-12-03T06:58:03.825Z,95913
2022-12-03T06:58:59.857Z,95913
2022-12-03T06:59:59.828Z,95909
2022-12-03T07:00:59.832Z,95906
2022-12-03T07:01:59.930Z,95908
2022-12-03T07:02:59.927Z,95913
2022-12-03T07:03:59.829Z,95916
2022-12-03T07:04:59.903Z,95915
2022-12-03T07:05:59.844Z,95921
2022-12-03T07:06:59.879Z,95921
2022-12-03T07:07:59.940Z,95921
2022-12-03T07:08:59.878Z,95921
2022-12-03T07:09:59.860Z,95920
2022-12-03T07:10:59.862Z,95922
2022-12-03T07:11:59.895Z,95922
2022-12-03T07:12:59.853Z,95914
2022-12-03T07:14:05.072Z,95919
2022-12-03T07:14:59.890Z,95919
2022-12-03T07:15:59.912Z,95919
2022-12-03T07:17:59.833Z,95913
2022-12-03T07:18:59.920Z,95915
2022-12-03T07:19:59.871Z,95915
2022-12-03T07:20:59.880Z,95913
2022-12-03T07:21:59.922Z,95916
2022-12-03T07:22:59.860Z,95916
2022-12-03T07:23:59.898Z,95916
2022-12-03T07:24:59.884Z,95919
2022-12-03T07:25:59.890Z,95914
2022-12-03T07:26:59.930Z,95914
2022-12-03T07:27:59.856Z,95914
2022-12-03T07:28:59.875Z,95905
2022-12-03T07:29:59.882Z,95907
2022-12-03T07:30:59.943Z,95904
2022-12-03T07:31:59.909Z,95904
2022-12-03T07:32:59.866Z,95905
2022-12-03T07:33:59.918Z,95904
2022-12-03T07:35:04.079Z,95903
2022-12-03T07:35:59.916Z,95901
2022-12-03T07:36:59.912Z,95909
2022-12-03T07:37:59.917Z,95909
2022-12-03T07:38:59.924Z,95911
2022-12-03T07:39:59.962Z,95909
2022-12-03T07:40:59.939Z,95904
2022-12-03T07:41:59.930Z,95904
2022-12-03T07:42:59.965Z,95909
2022-12-03T07:43:59.940Z,95905
2022-12-03T07:44:59.944Z,95901
2022-12-03T07:45:59.906Z,95903
2022-12-03T07:46:59.990Z,95903
2022-12-03T07:47:59.947Z,95904
2022-12-03T07:48:59.947Z,95903
2022-12-03T07:49:59.976Z,95906
2022-12-03T07:50:59.919Z,95906
2022-12-03T07:51:59.919Z,95906
2022-12-03T07:52:59.965Z,95906
2022-12-03T07:53:59.913Z,95911
2022-12-03T07:54:59.930Z,95909
2022-12-03T07:55:59.958Z,95909
2022-12-03T07:57:01.655Z,95910
2022-12-03T07:58:00.010Z,95911
2022-12-03T07:59:59.969Z,95910
2022-12-03T08:01:00.030Z,95914
2022-12-03T08:02:00.046Z,95907
2022-12-03T08:03:00.034Z,95915
2022-12-03T08:03:59.983Z,95915
2022-12-03T08:04:59.991Z,95913
2022-12-03T08:05:59.980Z,95915
2022-12-03T08:06:59.948Z,95915
2022-12-03T08:08:00.038Z,95910
2022-12-03T08:08:59.981Z,95915
2022-12-03T08:10:00.472Z,95916
2022-12-03T08:11:00.014Z,95916
2022-12-03T08:12:04.351Z,95913
2022-12-03T08:13:00.052Z,95919
2022-12-03T08:13:59.977Z,95919
2022-12-03T08:14:59.995Z,95914
2022-12-03T08:16:00.127Z,95914
2022-12-03T08:16:59.973Z,95914
2022-12-03T08:18:00.036Z,95914
2022-12-03T08:19:00.034Z,95913
2022-12-03T08:20:00.046Z,95911
2022-12-03T08:21:00.006Z,95913
2022-12-03T08:22:01.554Z,95913
2022-12-03T08:22:59.985Z,95912
2022-12-03T08:24:00.038Z,95911
2022-12-03T08:25:00.047Z,95910
2022-12-03T08:26:00.028Z,95915
2022-12-03T08:26:59.995Z,95914
2022-12-03T08:27:59.995Z,95914
2022-12-03T08:29:00.053Z,95911
2022-12-03T08:30:00.013Z,95909
2022-12-03T08:31:00.036Z,95911
2022-12-03T08:32:00.294Z,95911
2022-12-03T08:33:00.060Z,95908
2022-12-03T08:34:00.091Z,95911
2022-12-03T08:35:00.083Z,95911
2022-12-03T08:36:00.093Z,95912
2022-12-03T08:37:00.039Z,95911
2022-12-03T08:38:00.046Z,95905
2022-12-03T08:39:00.079Z,95911
2022-12-03T08:40:00.022Z,95911
2022-12-03T08:41:00.122Z,95911
2022-12-03T08:42:00.076Z,95911
2022-12-03T08:43:00.043Z,95909
2022-12-03T08:44:00.074Z,95903
2022-12-03T08:45:00.097Z,95903
2022-12-03T08:47:00.135Z,95907
2022-12-03T08:48:00.041Z,95907
2022-12-03T08:49:04.601Z,95900
2022-12-03T08:50:00.056Z,95898
2022-12-03T08:51:00.104Z,95902
2022-12-03T08:52:00.125Z,95904
2022-12-03T08:53:00.087Z,95904
2022-12-03T08:54:02.173Z,95908
2022-12-03T08:55:00.083Z,95908
2022-12-03T08:56:00.089Z,95904
2022-12-03T08:57:00.102Z,95906
2022-12-03T08:58:00.129Z,95904
2022-12-03T08:59:00.148Z,95902
2022-12-03T09:00:00.124Z,95902
2022-12-03T09:01:00.169Z,95904
2022-12-03T09:02:00.157Z,95905
2022-12-03T09:03:00.128Z,95903
2022-12-03T09:04:00.248Z,95904
2022-12-03T09:05:00.139Z,95903
2022-12-03T09:06:00.146Z,95899
2022-12-03T09:07:00.132Z,95899
2022-12-03T09:08:00.279Z,95897
2022-12-03T09:09:05.145Z,95898
2022-12-03T09:10:00.181Z,95900
2022-12-03T09:11:00.130Z,95900
2022-12-03T09:12:00.156Z,95897
2022-12-03T09:13:00.151Z,95893
2022-12-03T09:16:00.166Z,95896
2022-12-03T09:17:00.276Z,95898
2022-12-03T09:18:00.171Z,95899
2022-12-03T09:19:00.139Z,95897
2022-12-03T09:20:00.147Z,95897
2022-12-03T09:21:00.180Z,95896
2022-12-03T09:22:00.155Z,95896
2022-12-03T09:23:00.126Z,95888
2022-12-03T09:24:00.143Z,95896
2022-12-03T09:25:00.222Z,95897
2022-12-03T09:26:04.932Z,95891
2022-12-03T09:28:00.206Z,95896
2022-12-03T09:29:00.150Z,95897
2022-12-03T09:30:00.200Z,95895
2022-12-03T09:31:00.196Z,95896
2022-12-03T09:32:00.276Z,95900
2022-12-03T09:33:00.208Z,95900
2022-12-03T09:35:00.341Z,95894
2022-12-03T09:36:00.379Z,95891
2022-12-03T09:37:00.340Z,95887
2022-12-03T09:38:00.289Z,95887
2022-12-03T09:39:00.286Z,95886
2022-12-03T09:40:00.213Z,95884
2022-12-03T09:41:00.361Z,95885
2022-12-03T09:42:00.327Z,95887
2022-12-03T09:43:00.402Z,95885
2022-12-03T09:44:04.980Z,95885
2022-12-03T09:45:00.327Z,95885
2022-12-03T09:46:00.440Z,95892
2022-12-03T09:47:00.300Z,95890
2022-12-03T09:48:00.362Z,95890
2022-12-03T09:50:00.363Z,95894
2022-12-03T09:51:00.277Z,95890
2022-12-03T09:52:00.304Z,95893
2022-12-03T09:53:00.322Z,95891
2022-12-03T09:54:00.291Z,95886
2022-12-03T09:55:00.250Z,95886
2022-12-03T09:56:00.313Z,95886
2022-12-03T09:57:00.364Z,95883
2022-12-03T09:58:00.255Z,95878
2022-12-03T09:59:00.299Z,95876
2022-12-03T10:01:00.377Z,95873
2022-12-03T10:02:00.440Z,95874
2022-12-03T10:03:05.147Z,95873
2022-12-03T10:04:00.349Z,95879
2022-12-03T10:05:00.402Z,95878
2022-12-03T10:06:00.312Z,95878
2022-12-03T10:07:00.302Z,95877
2022-12-03T10:08:00.399Z,95867
2022-12-03T10:09:00.335Z,95865
2022-12-03T10:10:00.305Z,95864
2022-12-03T10:11:00.355Z,95866
2022-12-03T10:12:00.252Z,95866
2022-12-03T10:13:00.242Z,95868
2022-12-03T10:14:00.365Z,95866
2022-12-03T10:15:00.320Z,95863
2022-12-03T10:16:00.374Z,95864
2022-12-03T10:17:00.420Z,95867
2022-12-03T10:18:00.343Z,95869
2022-12-03T10:19:00.343Z,95869
2022-12-03T10:20:00.324Z,95869
2022-12-03T10:21:00.327Z,95865
2022-12-03T10:22:00.281Z,95865
2022-12-03T10:23:00.318Z,95856
2022-12-03T10:24:00.334Z,95857
2022-12-03T10:25:00.318Z,95852
2022-12-03T10:26:00.342Z,95853
2022-12-03T10:27:00.283Z,95851
2022-12-03T10:28:00.304Z,95850
2022-12-03T10:29:00.335Z,95847
2022-12-03T10:30:00.307Z,95847
2022-12-03T10:31:00.422Z,95845
2022-12-03T10:32:00.342Z,95845
2022-12-03T10:33:00.356Z,95837
2022-12-03T10:34:00.311Z,95837
2022-12-03T10:35:00.359Z,95841
2022-12-03T10:36:00.388Z,95838
2022-12-03T10:37:00.560Z,95834
2022-12-03T10:38:00.355Z,95830
2022-12-03T10:40:05.396Z,95820
2022-12-03T10:41:00.323Z,95827
2022-12-03T10:42:00.367Z,95821
2022-12-03T10:43:00.348Z,95820
2022-12-03T10:44:00.395Z,95819
2022-12-03T10:45:00.370Z,95819
2022-12-03T10:46:03.857Z,95818
2022-12-03T10:47:00.693Z,95819
2022-12-03T10:48:00.397Z,95817
2022-12-03T10:49:00.375Z,95815
2022-12-03T10:52:00.370Z,95803
2022-12-03T10:53:00.344Z,95803
2022-12-03T10:54:00.393Z,95804
2022-12-03T10:55:00.387Z,95796
2022-12-03T10:56:00.354Z,95796
2022-12-03T10:57:00.610Z,95795
2022-12-03T10:59:00.438Z,95794
2022-12-03T11:00:00.359Z,95796
2022-12-03T11:01:00.414Z,95795
2022-12-03T11:02:00.462Z,95795
2022-12-03T11:03:00.376Z,95790
2022-12-03T11:04:00.464Z,95786
2022-12-03T11:05:00.432Z,95791
2022-12-03T11:06:00.398Z,95792
2022-12-03T11:07:00.402Z,95795
2022-12-03T11:08:00.507Z,95795
2022-12-03T11:09:03.941Z,95790
2022-12-03T11:10:00.422Z,95787
2022-12-03T11:11:00.435Z,95787
2022-12-03T11:12:00.501Z,95781
2022-12-03T11:13:00.406Z,95783
2022-12-03T11:14:00.784Z,95783
2022-12-03T11:15:00.449Z,95784
2022-12-03T11:17:00.466Z,95783
2022-12-03T11:18:00.417Z,95783
2022-12-03T11:19:00.484Z,95785
2022-12-03T11:20:00.462Z,95785
2022-12-03T11:21:00.410Z,95786
2022-12-03T11:22:00.443Z,95785
2022-12-03T11:23:00.463Z,95786
2022-12-03T11:24:00.452Z,95785
2022-12-03T11:25:00.458Z,95782
2022-12-03T11:26:00.461Z,95782
2022-12-03T11:27:00.492Z,95790
2022-12-03T11:28:00.466Z,95792
2022-12-03T11:29:00.507Z,95791
2022-12-03T11:30:00.518Z,95789
2022-12-03T11:31:00.514Z,95787
2022-12-03T11:32:00.468Z,95787
2022-12-03T11:33:00.475Z,95789
2022-12-03T11:34:00.522Z,95787
2022-12-03T11:35:00.487Z,95787
2022-12-03T11:36:00.482Z,95781
2022-12-03T11:37:01.662Z,95784
2022-12-03T11:38:00.492Z,95785
2022-12-03T11:39:00.546Z,95784
2022-12-03T11:40:00.492Z,95781
2022-12-03T11:41:00.458Z,95782
2022-12-03T11:42:00.577Z,95778
2022-12-03T11:43:00.507Z,95778
2022-12-03T11:44:00.551Z,95771
2022-12-03T11:45:00.512Z,95767
2022-12-03T11:47:00.625Z,95773
2022-12-03T11:48:00.484Z,95773
2022-12-03T11:49:00.489Z,95765
2022-12-03T11:50:00.522Z,95765
2022-12-03T11:51:01.058Z,95766
2022-12-03T11:52:00.538Z,95762
2022-12-03T11:53:00.516Z,95763
2022-12-03T11:54:00.499Z,95755
2022-12-03T11:55:00.520Z,95756
2022-12-03T11:57:00.535Z,95753
2022-12-03T11:58:00.581Z,95756
2022-12-03T11:59:00.493Z,95756
2022-12-03T12:00:00.530Z,95748
2022-12-03T12:01:00.544Z,95748
2022-12-03T12:02:00.619Z,95747
2022-12-03T12:03:00.638Z,95742
2022-12-03T12:04:00.590Z,95742
2022-12-03T12:05:00.539Z,95738
2022-12-03T12:06:00.568Z,95738
2022-12-03T12:07:00.548Z,95738
2022-12-03T12:08:00.726Z,95742
2022-12-03T12:09:00.522Z,95741
2022-12-03T12:10:00.564Z,95741
2022-12-03T12:11:00.548Z,95744
2022-12-03T12:12:00.565Z,95746
2022-12-03T12:13:00.595Z,95741
2022-12-03T12:14:00.595Z,95741
2022-12-03T12:15:00.572Z,95737
2022-12-03T12:16:00.793Z,95736
2022-12-03T12:17:00.555Z,95732
2022-12-03T12:18:00.554Z,95730
2022-12-03T12:19:00.573Z,95730
2022-12-03T12:20:00.875Z,95730
2022-12-03T12:21:00.614Z,95727
2022-12-03T12:22:00.555Z,95727
2022-12-03T12:23:00.642Z,95731
2022-12-03T12:24:00.602Z,95731
2022-12-03T12:25:00.641Z,95730
2022-12-03T12:26:00.571Z,95730
2022-12-03T12:27:00.594Z,95729
2022-12-03T12:28:01.300Z,95729
2022-12-03T12:29:00.608Z,95726
2022-12-03T12:30:00.706Z,95733
2022-12-03T12:31:00.660Z,95728
2022-12-03T12:32:00.716Z,95722
2022-12-03T12:33:00.660Z,95727
2022-12-03T12:34:00.600Z,95726
2022-12-03T12:35:00.628Z,95726
2022-12-03T12:36:00.610Z,95723
2022-12-03T12:37:00.629Z,95714
2022-12-03T12:38:00.850Z,95722
2022-12-03T12:39:00.630Z,95722
2022-12-03T12:40:00.663Z,95721
2022-12-03T12:41:00.638Z,95725
2022-12-03T12:42:00.649Z,95725
2022-12-03T12:43:02.194Z,95723
2022-12-03T12:45:00.667Z,95721
2022-12-03T12:46:13.649Z,95720
2022-12-03T12:47:00.723Z,95724
2022-12-03T12:48:00.689Z,95726
2022-12-03T12:49:00.624Z,95719
2022-12-03T12:50:00.672Z,95719
2022-12-03T12:51:00.667Z,95715
2022-12-03T12:52:00.645Z,95719
2022-12-03T12:53:00.696Z,95717
2022-12-03T12:55:04.976Z,95717
2022-12-03T12:56:00.711Z,95717
2022-12-03T12:57:00.640Z,95717
2022-12-03T12:58:00.679Z,95722
2022-12-03T12:59:00.665Z,95722
2022-12-03T13:00:00.644Z,95712
2022-12-03T13:01:00.821Z,95715
2022-12-03T13:02:01.741Z,95714
2022-12-03T13:03:00.721Z,95714
2022-12-03T13:04:00.941Z,95713
2022-12-03T13:05:01.562Z,95707
2022-12-03T13:07:00.667Z,95705
2022-12-03T13:08:02.729Z,95705
2022-12-03T13:09:00.705Z,95712
2022-12-03T13:10:00.751Z,95709
2022-12-03T13:11:00.679Z,95704
2022-12-03T13:12:00.688Z,95701
2022-12-03T13:13:00.678Z,95701
2022-12-03T13:14:00.715Z,95703
2022-12-03T13:15:00.732Z,95698
2022-12-03T13:16:00.783Z,95699
2022-12-03T13:17:00.712Z,95698
2022-12-03T13:18:00.744Z,95702
2022-12-03T13:19:00.715Z,95698
2022-12-03T13:20:07.203Z,95698
2022-12-03T13:21:00.692Z,95692
2022-12-03T13:22:00.798Z,95695
2022-12-03T13:23:00.718Z,95699
2022-12-03T13:24:00.743Z,95695
2022-12-03T13:25:00.694Z,95695
2022-12-03T13:27:00.779Z,95688
2022-12-03T13:28:00.716Z,95688
2022-12-03T13:29:00.713Z,95684
2022-12-03T13:30:00.753Z,95684
2022-12-03T13:31:00.996Z,95690
2022-12-03T13:32:00.833Z,95688
2022-12-03T13:33:00.791Z,95686
2022-12-03T13:34:00.716Z,95693
2022-12-03T13:35:00.745Z,95692
2022-12-03T13:36:00.760Z,95696
2022-12-03T13:37:00.811Z,95693
2022-12-03T13:38:00.808Z,95689
2022-12-03T13:39:00.771Z,95685
2022-12-03T13:40:00.767Z,95685
2022-12-03T13:41:00.791Z,95691
2022-12-03T13:42:01.765Z,95692
2022-12-03T13:43:00.787Z,95695
2022-12-03T13:44:00.832Z,95695